Flight Track Log - Related Links

Times and Time Zones

All times are in EDT time to prevent confusion due to time zone crossing. See the UAL252 flight status page for this flight to view local times or setup timezone preferences in your user account.

Time Position Orientation Groundspeed Altitude Reporting Facility
EDT Latitude Longitude Course Direction KTS MPH feet Rate Location/Type
Fri 10:29:20 PM 29.9556 -95.3444 276° West 166 191 1,000  Level Houston Center
Fri 10:30:08 PM 29.9331 -95.3736 228° Southwest 195 224 2,000 1,515 Climbing Houston Center
Fri 10:31:03 PM 29.9497 -95.4414 286° West 249 287 3,600 2,115 Climbing Houston Center
Fri 10:32:10 PM 29.9689 -95.5381 283° West 285 328 6,300 2,344 Climbing Houston Center
Fri 10:33:11 PM 29.9861 -95.6372 281° West 325 374 8,600 2,208 Climbing Houston Center
Fri 10:34:00 PM 30.0738 -96.1278 276° West  Level FlightAware Approximate
Fri 10:34:15 PM 30.0083 -95.7425 284° West 321 369 10,900  Level Houston Center
Fri 10:35:16 PM 30.0286 -95.8556 282° West 360 414 12,300 1,377 Climbing Houston Center
Fri 10:36:17 PM 30.0514 -95.9792 282° West 393 452 13,700 1,377 Climbing Houston Center
Fri 10:37:18 PM 30.0728 -96.1058 281° West 412 474 15,100 1,659 Climbing Houston Center
Fri 10:38:20 PM 30.0978 -96.2406 282° West 427 491 17,100 1,561 Climbing Houston Center
Fri 10:39:21 PM 30.1189 -96.3764 280° West 431 496 18,300 1,230 Climbing Houston Center
Fri 10:40:22 PM 30.1414 -96.5181 280° West 443 510 19,600 1,131 Climbing Houston Center
Fri 10:41:23 PM 30.1631 -96.6656 280° West 458 527 20,600 934 Climbing Houston Center
Fri 10:42:24 PM 30.1983 -96.8142 285° West 471 542 21,500 1,082 Climbing Houston Center
Fri 10:43:25 PM 30.2333 -96.9653 285° West 479 551 22,800 885 Climbing Houston Center
Fri 10:44:26 PM 30.2689 -97.1164 285° West 480 552 23,300 738 Climbing Houston Center
Fri 10:45:27 PM 30.3119 -97.2972 285° West 490 564 24,300 689 Climbing Houston Center
Fri 10:46:28 PM 30.3481 -97.4531 285° West 496 571 24,700 689 Climbing Houston Center
Fri 10:47:29 PM 30.3833 -97.6083 285° West 491 565 25,700 934 Climbing Houston Center
Fri 10:48:30 PM 30.4192 -97.7619 285° West 487 560 26,600 683 Climbing Houston Center
Fri 10:49:32 PM 30.4542 -97.9128 285° West 480 552 27,100 732 Climbing Houston Center
Fri 10:50:33 PM 30.4886 -98.0650 285° West 482 555 28,100 836 Climbing Houston Center
Fri 10:51:34 PM 30.5231 -98.2172 285° West 483 556 28,800 836 Climbing Houston Center
Fri 10:52:35 PM 30.5572 -98.3700 285° West 483 556 29,800 984 Climbing Houston Center
Fri 10:53:36 PM 30.5914 -98.5197 285° West 477 549 30,800 1,033 Climbing Houston Center
Fri 10:54:37 PM 30.6250 -98.6694 285° West 474 545 31,900 1,525 Climbing Houston Center
Fri 10:55:38 PM 30.6564 -98.8122 284° West 458 527 33,900 1,033 Climbing Houston Center
Fri 10:56:39 PM 30.6903 -98.9486 286° West 438 504 34,000 49 Climbing Houston Center
Fri 10:57:40 PM 30.7569 -99.0806 300° West 462 532 34,000 -49 Level Houston Center
Fri 10:58:41 PM 30.8219 -99.2139 300° West 463 533 33,900 -49 Descending Houston Center
Fri 10:59:42 PM 30.8839 -99.3436 299° West 462 532 33,900  Level Houston Center
Fri 11:00:43 PM 30.9564 -99.4628 305° West 457 526 33,900  Level Houston Center
Fri 11:01:44 PM 31.0756 -99.5158 339° North 467 537 33,900 148 Level Houston Center
Fri 11:02:45 PM 31.2072 -99.5236 357° North 479 551 34,200 492 Climbing Houston Center
Fri 11:03:46 PM 31.3161 -99.5978 330° Northwest 464 534 34,900 738 Climbing Houston Center
Fri 11:04:47 PM 31.3822 -99.7236 302° West 468 539 35,700 492 Climbing Houston Center
Fri 11:05:48 PM 31.4314 -99.8536 294° West 450 518 35,900 98 Climbing Houston Center
Fri 11:06:49 PM 31.4828 -99.9794 296° West 445 512 35,900  Level Houston Center
Fri 11:07:50 PM 31.5439 -100.1406 294° West 463 533 35,900  Level Houston Center
Fri 11:08:51 PM 31.5961 -100.2722 295° West 466 536 35,900  Level Houston Center
Fri 11:09:52 PM 31.6469 -100.4017 295° West 454 522 35,900  Level Houston Center
Fri 11:10:53 PM 31.6992 -100.5333 295° West 448 516 35,900 49 Level Houston Center
Fri 11:11:54 PM 31.7497 -100.6664 294° West 462 532 36,000  Climbing Houston Center
Fri 11:12:55 PM 31.8061 -100.8061 295° West 449 517 35,900 -49 Descending Houston Center
Fri 11:13:56 PM 31.8558 -100.9356 294° West 439 505 35,900  Level Houston Center
Fri 11:14:57 PM 31.9047 -101.0658 294° West 438 504 35,900  Level Houston Center
Fri 11:16:01 PM 31.9578 -101.2011 295° West 445 512 35,900  Level Fort Worth Center
Fri 11:17:01 PM 32.0081 -101.3331 294° West 445 512 35,900  Level Fort Worth Center
Fri 11:18:01 PM 32.0561 -101.4650 293° West 445 512 35,900  Level Fort Worth Center
Fri 11:19:01 PM 32.1042 -101.5922 294° West 445 512 35,900  Level Fort Worth Center
Fri 11:20:01 PM 32.1519 -101.7219 294° West 445 512 35,900 50 Level Fort Worth Center
Fri 11:21:01 PM 32.2011 -101.8692 292° West 440 506 36,000  Climbing Fort Worth Center
Fri 11:22:01 PM 32.2508 -101.9969 295° West 440 506 35,900 250 Descending Fort Worth Center
Fri 11:23:01 PM 32.2981 -102.1294 293° West 440 506 36,500 650 Climbing Fort Worth Center
Fri 11:24:01 PM 32.3433 -102.2547 293° West 434 499 37,200 500 Climbing Fort Worth Center
Fri 11:25:01 PM 32.3903 -102.3878 293° West 429 494 37,500 350 Climbing Fort Worth Center
Fri 11:26:01 PM 32.4436 -102.5136 297° West 429 494 37,900 250 Climbing Fort Worth Center
Fri 11:27:01 PM 32.4881 -102.6492 291° West 440 506 38,000 50 Climbing Fort Worth Center
Fri 11:28:01 PM 32.5369 -102.7775 294° West 433 498 38,000 -50 Level Fort Worth Center
Fri 11:29:01 PM 32.5711 -102.9078 287° West 427 491 37,900  Descending Fort Worth Center
Fri 11:30:01 PM 32.6069 -103.0406 288° West 422 486 38,000 30 Climbing Fort Worth Center
Fri 11:32:18 PM 32.7833 -103.2633 313° West 436 502 38,000  Level Albuquerque Center
Fri 11:33:18 PM 32.8808 -103.3497 323° Northwest 436 502 38,000  Level Albuquerque Center
Fri 11:34:20 PM 32.9761 -103.4397 322° Northwest 436 502 38,000  Level Albuquerque Center
Fri 11:35:21 PM 33.0747 -103.5258 324° Northwest 439 505 38,000  Level Albuquerque Center
Fri 11:36:24 PM 33.1794 -103.6050 328° Northwest 441 507 38,000 -49 Level Albuquerque Center
Fri 11:37:23 PM 33.2967 -103.6925 328° Northwest 449 517 37,900  Descending Albuquerque Center
Fri 11:38:27 PM 33.4150 -103.7797 328° Northwest 461 531 38,000 48 Climbing Albuquerque Center
Fri 11:39:28 PM 33.5203 -103.8619 327° Northwest 457 526 38,000  Level Albuquerque Center
Fri 11:40:29 PM 33.6264 -103.9597 323° Northwest 450 518 38,000  Level Albuquerque Center
Fri 11:41:32 PM 33.6844 -104.0842 299° West 433 498 38,000  Level Albuquerque Center
Fri 11:42:33 PM 33.7444 -104.2078 300° West 432 497 38,000  Level Albuquerque Center
Fri 11:43:35 PM 33.8261 -104.3306 309° West 439 505 38,000  Level Albuquerque Center
Fri 11:44:37 PM 33.9017 -104.4428 309° West 436 502 38,000 -50 Level Albuquerque Center
Fri 11:45:36 PM 33.9792 -104.5569 309° West 440 506 37,900  Descending Albuquerque Center
Fri 11:46:40 PM 34.0300 -104.6744 298° West 426 490 38,000 48 Climbing Albuquerque Center
Fri 11:47:41 PM 34.0875 -104.8344 293° West 435 501 38,000  Level Albuquerque Center
Fri 11:48:41 PM 34.1358 -104.9711 293° West 437 503 38,000  Level Albuquerque Center
Fri 11:49:45 PM 34.1858 -105.1069 294° West 438 504 38,000  Level Albuquerque Center
Fri 11:50:46 PM 34.2425 -105.2383 298° West 436 502 38,000  Level Albuquerque Center
Fri 11:51:47 PM 34.2986 -105.3736 297° West 440 506 38,000  Level Albuquerque Center
Fri 11:52:50 PM 34.3547 -105.5083 297° West 442 509 38,000  Level Albuquerque Center
Fri 11:53:50 PM 34.4111 -105.6433 297° West 443 510 38,000  Level Albuquerque Center
Fri 11:54:50 PM 34.4675 -105.7792 297° West 445 512 38,000  Level Albuquerque Center
Fri 11:55:54 PM 34.5211 -105.9103 296° West 436 502 38,000 -48 Level Albuquerque Center
Fri 11:56:54 PM 34.5742 -106.0408 296° West 430 495 37,900 -50 Descending Albuquerque Center
Fri 11:57:55 PM 34.6269 -106.1722 296° West 429 494 37,900 48 Level Albuquerque Center
Fri 11:58:59 PM 34.6806 -106.3022 297° West 431 496 38,000 48 Climbing Albuquerque Center
Sat 12:00:00 AM 34.7333 -106.4356 296° West 435 501 38,000  Level Albuquerque Center
Sat 12:01:01 AM 34.7886 -106.5719 296° West 435 501 38,000  Level Albuquerque Center
Sat 12:02:02 AM 34.8500 -106.7289 296° West 435 501 38,000  Level Albuquerque Center
Sat 12:03:03 AM 34.9019 -106.8564 296° West 439 505 38,000  Level Albuquerque Center
Sat 12:04:04 AM 34.9519 -106.9825 296° West 433 498 38,000  Level Albuquerque Center
Sat 12:05:05 AM 35.0117 -107.1319 296° West 437 503 38,000  Level Albuquerque Center
Sat 12:06:08 AM 35.0647 -107.2711 295° West 440 506 38,000  Level Albuquerque Center
Sat 12:07:09 AM 35.1169 -107.4033 296° West 434 499 38,000 -49 Level Albuquerque Center
Sat 12:08:10 AM 35.1678 -107.5347 295° West 428 493 37,900  Descending Albuquerque Center
Sat 12:09:10 AM 35.2181 -107.6633 296° West 434 499 38,000 48 Climbing Albuquerque Center
Sat 12:10:14 AM 35.2756 -107.8111 296° West 432 497 38,000  Level Albuquerque Center
Sat 12:11:13 AM 35.3242 -107.9389 295° West 432 497 38,000  Level Albuquerque Center
Sat 12:12:16 AM 35.3817 -108.0847 296° West 428 493 38,000  Level Albuquerque Center
Sat 12:13:17 AM 35.4294 -108.2114 295° West 426 490 38,000  Level Albuquerque Center
Sat 12:14:19 AM 35.4769 -108.3369 295° West 423 487 38,000  Level Albuquerque Center
Sat 12:15:20 AM 35.5331 -108.4825 295° West 422 486 38,000  Level Albuquerque Center
Sat 12:16:21 AM 35.5811 -108.6081 295° West 421 484 38,000 -49 Level Albuquerque Center
Sat 12:17:23 AM 35.6278 -108.7333 295° West 419 482 37,900  Descending Albuquerque Center
Sat 12:18:24 AM 35.6825 -108.8800 295° West 420 483 38,000 49 Climbing Albuquerque Center
Sat 12:19:25 AM 35.7292 -109.0075 294° West 424 488 38,000  Level Albuquerque Center
Sat 12:20:25 AM 35.7764 -109.1344 295° West 423 487 38,000  Level Albuquerque Center
Sat 12:21:27 AM 35.8319 -109.2819 295° West 421 484 38,000  Level Albuquerque Center
Sat 12:22:27 AM 35.8792 -109.4103 294° West 425 489 38,000  Level Albuquerque Center
Sat 12:23:29 AM 35.9256 -109.5372 294° West 424 488 38,000  Level Albuquerque Center
Sat 12:24:09 AM 35.9631 -109.6442 293° West 424 488 38,000  Level Denver Center
Sat 12:25:10 AM 36.0083 -109.7708 294° West 420 483 38,000  Level Denver Center
Sat 12:26:11 AM 36.0558 -109.8981 295° West 423 487 38,000  Level Denver Center
Sat 12:27:12 AM 36.1092 -110.0481 294° West 427 491 38,000  Level Denver Center
Sat 12:28:13 AM 36.1439 -110.1403 295° West 425 489 38,000  Level Denver Center
Sat 12:29:14 AM 36.2011 -110.3003 294° West 424 488 38,000  Level Denver Center
Sat 12:30:15 AM 36.2567 -110.4606 293° West 423 487 38,000  Level Denver Center
Sat 12:31:17 AM 36.3036 -110.5933 294° West 422 486 38,000  Level Denver Center
Sat 12:32:18 AM 36.3519 -110.7269 294° West 423 487 38,000  Level Denver Center
Sat 12:33:19 AM 36.3975 -110.8603 293° West 421 484 38,000  Level Denver Center
Sat 12:34:20 AM 36.4453 -110.9936 294° West 422 486 38,000  Level Denver Center
Sat 12:35:21 AM 36.4914 -111.1261 293° West 420 483 38,000  Level Denver Center
Sat 12:36:22 AM 36.5389 -111.2583 294° West 420 483 38,000  Level Denver Center
Sat 12:37:23 AM 36.5833 -111.3950 292° West 424 488 38,000  Level Denver Center
Sat 12:38:24 AM 36.6303 -111.5281 294° West 422 486 38,000  Level Denver Center
Sat 12:39:35 AM 36.6847 -111.6867 293° West 418 481 38,000 -45 Level Los Angeles Center
Sat 12:40:37 AM 36.7317 -111.8192 294° West 417 480 37,900  Descending Los Angeles Center
Sat 12:41:38 AM 36.7772 -111.9544 293° West 422 486 38,000 49 Climbing Los Angeles Center
Sat 12:42:40 AM 36.8217 -112.0900 292° West 422 486 38,000  Level Los Angeles Center
Sat 12:43:53 AM 36.8764 -112.2514 293° West 421 484 38,000 -44 Level Los Angeles Center
Sat 12:44:55 AM 36.9450 -112.4047 299° West 428 493 37,900  Descending Los Angeles Center
Sat 12:45:57 AM 37.0414 -112.5042 321° Northwest 446 513 38,000 49 Climbing Los Angeles Center
Sat 12:46:58 AM 37.1397 -112.6031 321° Northwest 451 519 38,000  Level Los Angeles Center
Sat 12:48:00 AM 37.2389 -112.7042 321° Northwest 456 525 38,000  Level Los Angeles Center
Sat 12:49:01 AM 37.3367 -112.8044 321° Northwest 453 521 38,000  Level Los Angeles Center
Sat 12:50:03 AM 37.4339 -112.9044 321° Northwest 448 516 38,000  Level Los Angeles Center
Sat 12:51:04 AM 37.5331 -113.0081 320° Northwest 449 517 38,000  Level Los Angeles Center
Sat 12:52:06 AM 37.6328 -113.1122 320° Northwest 455 524 38,000  Level Los Angeles Center
Sat 12:52:47 AM 37.7108 -113.1925 321° Northwest 453 521 38,000  Level Salt Lake Center
Sat 12:53:49 AM 37.8072 -113.2911 321° Northwest 447 514 38,000  Level Salt Lake Center
Sat 12:54:50 AM 37.8900 -113.4056 313° West 437 503 38,000  Level Salt Lake Center
Sat 12:55:51 AM 37.9350 -113.5419 293° West 423 487 38,000  Level Salt Lake Center
Sat 12:56:52 AM 37.9644 -113.6833 285° West 418 481 38,000  Level Salt Lake Center
Sat 12:57:53 AM 37.9942 -113.8258 285° West 419 482 38,000  Level Salt Lake Center
Sat 12:58:55 AM 38.0244 -113.9653 285° West 413 475 38,000  Level Salt Lake Center
Sat 12:59:56 AM 38.0528 -114.1056 284° West 412 474 38,000  Level Salt Lake Center
Sat 01:00:57 AM 38.0833 -114.2464 285° West 414 476 38,000  Level Salt Lake Center
Sat 01:01:58 AM 38.1189 -114.4144 285° West 412 474 38,000  Level Salt Lake Center
Sat 01:02:59 AM 38.1483 -114.5528 285° West 406 467 38,000  Level Salt Lake Center
Sat 01:04:00 AM 38.1758 -114.6914 284° West 407 468 38,000  Level Salt Lake Center
Sat 01:05:01 AM 38.2069 -114.8306 286° West 410 472 38,000  Level Salt Lake Center
Sat 01:06:03 AM 38.2356 -114.9703 285° West 410 472 38,000  Level Salt Lake Center
Sat 01:07:04 AM 38.2628 -115.1103 284° West 410 472 38,000  Level Salt Lake Center
Sat 01:08:05 AM 38.2914 -115.2500 285° West 410 472 38,000  Level Salt Lake Center
Sat 01:09:06 AM 38.3175 -115.3872 284° West 408 470 38,000  Level Salt Lake Center
Sat 01:10:07 AM 38.3456 -115.5258 285° West 406 467 38,000  Level Salt Lake Center
Sat 01:11:08 AM 38.3783 -115.6936 284° West 407 468 38,000 -197 Level Salt Lake Center
Sat 01:12:09 AM 38.4056 -115.8342 284° West 409 471 37,600 -639 Descending Salt Lake Center
Sat 01:13:10 AM 38.4325 -115.9731 284° West 406 467 36,700 -787 Descending Salt Lake Center
Sat 01:14:11 AM 38.4603 -116.1122 284° West 405 466 36,000 -341 Descending Salt Lake Center
Sat 01:15:13 AM 38.4872 -116.2544 284° West 409 471 36,000  Level Salt Lake Center
Sat 01:16:14 AM 38.5144 -116.3967 284° West 413 475 36,000  Level Salt Lake Center
Sat 01:17:15 AM 38.5417 -116.5383 284° West 413 475 36,000  Level Salt Lake Center
Sat 01:18:16 AM 38.5686 -116.6864 283° West 425 489 36,000  Level Salt Lake Center
Sat 01:19:17 AM 38.5969 -116.8325 284° West 427 491 36,000  Level Salt Lake Center
Sat 01:20:17 AM 38.6233 -116.9786 283° West 425 489 36,000  Level Salt Lake Center
Sat 01:21:18 AM 38.6503 -117.1217 284° West 419 482 36,000 -49 Level Salt Lake Center
Sat 01:22:19 AM 38.6825 -117.2956 283° West 421 484 35,900 -49 Descending Salt Lake Center
Sat 01:23:20 AM 38.7086 -117.4419 283° West 423 487 35,900 49 Level Salt Lake Center
Sat 01:24:21 AM 38.7353 -117.5897 283° West 428 493 36,000 47 Climbing Salt Lake Center
Sat 01:25:27 AM 38.7642 -117.7508 283° West 433 498 36,000  Level Oakland Center
Sat 01:26:40 AM 38.7953 -117.9269 283° West 423 487 36,000  Level Oakland Center
Sat 01:27:41 AM 38.8206 -118.0744 282° West 422 486 36,000  Level Oakland Center
Sat 01:28:42 AM 38.8456 -118.2233 282° West 425 489 36,000  Level Oakland Center
Sat 01:29:43 AM 38.8711 -118.3728 282° West 427 491 36,000  Level Oakland Center
Sat 01:30:44 AM 38.8969 -118.5203 283° West 423 487 36,000 -49 Level Oakland Center
Sat 01:31:45 AM 38.9217 -118.6672 282° West 420 483 35,900 -496 Descending Oakland Center
Sat 01:32:45 AM 38.9453 -118.8142 282° West 417 480 35,000 -942 Descending Oakland Center
Sat 01:33:46 AM 38.9714 -118.9639 283° West 425 489 34,000 -984 Descending Oakland Center
Sat 01:34:47 AM 38.9958 -119.1139 282° West 426 490 33,000 -984 Descending Oakland Center
Sat 01:35:48 AM 39.0203 -119.2664 282° West 431 496 32,000 -992 Descending Oakland Center
Sat 01:36:48 AM 39.0442 -119.4175 282° West 430 495 31,000 -992 Descending Oakland Center
Sat 01:37:49 AM 39.0697 -119.5683 282° West 431 496 30,000 -984 Descending Oakland Center
Sat 01:38:50 AM 39.0906 -119.7211 280° West 435 501 29,000 -1,230 Descending Oakland Center
Sat 01:39:51 AM 39.0742 -119.8733 262° West 434 499 27,500 -2,016 Descending Oakland Center
Sat 01:40:52 AM 39.0531 -120.0625 262° West 444 511 24,900 -2,281 Descending Oakland Center
Sat 01:41:52 AM 39.0356 -120.2058 261° West 438 504 22,900 -2,083 Descending Oakland Center
Sat 01:42:53 AM 39.0181 -120.3572 262° West 428 493 20,700 -2,164 Descending Oakland Center
Sat 01:43:54 AM 39.0006 -120.5069 261° West 426 490 18,500 -2,164 Descending Oakland Center
Sat 01:44:55 AM 38.9839 -120.6528 262° West 415 478 16,300 -2,132 Descending Oakland Center
Sat 01:45:55 AM 38.9656 -120.7972 261° West 413 475 14,200 -1,835 Descending Oakland Center
Sat 01:46:56 AM 38.9475 -120.9397 261° West 407 468 12,600 -1,574 Descending Oakland Center
Sat 01:47:57 AM 38.9294 -121.0819 261° West 408 470 11,000 -1,458 Descending Oakland Center
Sat 01:48:43 AM 38.9167 -121.2167 263° West 389 448 10,000 -566 Descending Northern Cal TRACON
Sat 01:49:43 AM 38.9000 -121.3333 260° West 356 410 10,000 -850 Level Northern Cal TRACON
Sat 01:50:43 AM 38.8667 -121.4333 247° West 291 335 8,300 -2,105 Descending Northern Cal TRACON
Sat 01:51:37 AM 38.8333 -121.5167 243° Southwest 284 327 6,000 -2,250 Descending Northern Cal TRACON
Sat 01:52:43 AM 38.7833 -121.6000 232° Southwest 274 315 3,800 -1,429 Descending Northern Cal TRACON
Sat 01:53:43 AM 38.7333 -121.6333 207° Southwest 229 264 3,000 -769 Descending Northern Cal TRACON
Sat 01:54:01 AM 38.7122 -121.6494 211° Southwest 248 285 2,800 -532 Descending Oakland Center
Sat 01:55:02 AM 38.6594 -121.6681 195° South 207 238 2,300 -689 Descending Oakland Center
Sat 01:56:03 AM 38.6278 -121.6292 136° Southeast 167 192 1,400 -632 Descending Oakland Center
Sat 01:56:37 AM 38.6333 -121.6000 76° East 149 171 1,300 -176 Descending Northern Cal TRACON

Login

Don't have an account? Register now (free) for customized features, flight alerts, and more!